createdAt,value
2018-11-03T00:02:03.317Z,69.60
2018-11-03T00:04:34.207Z,79.23
2018-11-03T00:07:05.236Z,67.77
2018-11-03T00:09:36.079Z,70.03
2018-11-03T00:12:07.108Z,81.67
2018-11-03T00:14:38.000Z,71.90
2018-11-03T00:17:08.905Z,77.83
2018-11-03T00:19:39.813Z,79.03
2018-11-03T00:22:10.833Z,73.33
2018-11-03T00:24:41.660Z,69.20
2018-11-03T00:27:12.513Z,64.17
2018-11-03T00:29:43.337Z,72.73
2018-11-03T00:32:14.248Z,66.87
2018-11-03T00:34:45.105Z,69.43
2018-11-03T00:37:15.978Z,64.43
2018-11-03T00:39:47.036Z,70.63
2018-11-03T00:42:17.957Z,66.13
2018-11-03T00:44:48.764Z,65.40
2018-11-03T00:47:19.697Z,63.10
2018-11-03T00:49:50.544Z,58.87
2018-11-03T00:52:21.646Z,66.57
2018-11-03T00:54:52.516Z,62.90
2018-11-03T00:57:23.377Z,60.40
2018-11-03T00:59:54.342Z,63.07
2018-11-03T01:02:25.238Z,62.43
2018-11-03T01:04:56.173Z,60.93
2018-11-03T01:07:27.055Z,68.00
2018-11-03T01:09:57.914Z,64.57
2018-11-03T01:12:28.786Z,65.20
2018-11-03T01:14:59.648Z,63.40
2018-11-03T01:17:30.621Z,59.33
2018-11-03T01:20:01.483Z,61.90
2018-11-03T01:22:32.417Z,62.80
2018-11-03T01:25:03.392Z,66.27
2018-11-03T01:27:34.315Z,59.17
2018-11-03T01:30:05.833Z,65.50
2018-11-03T01:32:36.741Z,58.77
2018-11-03T01:35:09.111Z,62.33
2018-11-03T01:37:40.549Z,60.93
2018-11-03T01:40:13.709Z,60.67
2018-11-03T01:42:44.710Z,57.93
2018-11-03T01:45:15.567Z,54.13
2018-11-03T01:47:46.449Z,63.03
2018-11-03T01:50:17.308Z,54.83
2018-11-03T01:52:48.162Z,58.33
2018-11-03T01:55:19.023Z,53.20
2018-11-03T01:57:49.838Z,58.33
2018-11-03T02:00:20.675Z,56.63
2018-11-03T02:02:51.511Z,53.50
2018-11-03T02:05:22.348Z,60.53
2018-11-03T02:07:53.178Z,53.80
2018-11-03T02:10:24.011Z,58.97
2018-11-03T02:12:54.828Z,57.47
2018-11-03T02:15:25.647Z,53.83
2018-11-03T02:17:56.643Z,58.53
2018-11-03T02:20:27.885Z,53.17
2018-11-03T02:22:58.858Z,53.63
2018-11-03T02:25:29.662Z,56.60
2018-11-03T02:28:00.511Z,56.60
2018-11-03T02:30:31.527Z,54.70
2018-11-03T02:33:03.868Z,54.30
2018-11-03T02:35:34.789Z,51.90
2018-11-03T02:38:05.757Z,57.73
2018-11-03T02:40:36.631Z,51.53
2018-11-03T02:43:07.544Z,63.13
2018-11-03T02:45:38.751Z,58.50
2018-11-03T02:48:09.921Z,55.83
2018-11-03T02:50:41.096Z,54.47
2018-11-03T02:53:11.976Z,54.43
2018-11-03T02:55:43.496Z,56.30
2018-11-03T02:58:14.402Z,58.60
2018-11-03T03:00:45.265Z,56.20
2018-11-03T03:03:16.303Z,56.03
2018-11-03T03:05:47.968Z,56.97
2018-11-03T03:08:18.805Z,61.27
2018-11-03T03:10:50.215Z,56.60
2018-11-03T03:13:21.237Z,48.90
2018-11-03T03:15:52.098Z,53.57
2018-11-03T03:18:22.978Z,57.37
2018-11-03T03:20:54.076Z,56.23
2018-11-03T03:23:25.612Z,53.17
2018-11-03T03:25:56.558Z,53.40
2018-11-03T03:28:27.580Z,51.03
2018-11-03T03:30:58.421Z,58.80
2018-11-03T03:33:29.401Z,55.87
2018-11-03T03:36:00.266Z,55.27
2018-11-03T03:38:31.554Z,62.23
2018-11-03T03:41:02.399Z,54.03
2018-11-03T03:43:33.461Z,52.20
2018-11-03T03:46:04.404Z,58.60
2018-11-03T03:48:35.256Z,51.13
2018-11-03T03:51:06.294Z,57.93
2018-11-03T03:53:37.121Z,54.07
2018-11-03T03:56:08.047Z,59.10
2018-11-03T03:58:38.946Z,57.07
2018-11-03T04:01:09.947Z,58.67
2018-11-03T04:03:41.020Z,59.53
2018-11-03T04:06:12.035Z,58.87
2018-11-03T04:08:43.828Z,51.57
2018-11-03T04:11:14.664Z,48.30
2018-11-03T04:13:45.983Z,46.63
2018-11-03T04:16:16.832Z,41.67
2018-11-03T04:18:47.770Z,44.03
2018-11-03T04:21:22.633Z,45.83
2018-11-03T04:23:53.532Z,42.27
2018-11-03T04:26:24.391Z,43.93
2018-11-03T04:28:55.698Z,41.97
2018-11-03T04:31:27.382Z,39.60
2018-11-03T04:33:58.568Z,41.33
2018-11-03T04:36:29.440Z,39.10
2018-11-03T04:39:00.282Z,36.20
2018-11-03T04:41:31.250Z,37.70
2018-11-03T04:44:02.660Z,33.03
2018-11-03T04:46:33.502Z,37.57
2018-11-03T04:49:04.924Z,34.13
2018-11-03T04:51:36.038Z,32.10
2018-11-03T04:54:07.032Z,24.67
2018-11-03T04:56:37.926Z,24.97
2018-11-03T04:59:08.941Z,21.83
2018-11-03T05:01:39.851Z,23.40
2018-11-03T05:04:10.765Z,21.83
2018-11-03T05:06:42.038Z,23.70
2018-11-03T05:09:13.041Z,25.07
2018-11-03T05:11:43.873Z,27.57
2018-11-03T05:14:14.789Z,32.97
2018-11-03T05:16:45.648Z,31.70
2018-11-03T05:19:16.611Z,30.37
2018-11-03T05:21:47.438Z,26.33
2018-11-03T05:24:18.510Z,28.00
2018-11-03T05:26:49.369Z,27.27
2018-11-03T05:29:20.385Z,26.73
2018-11-03T05:31:51.183Z,23.13
2018-11-03T05:34:22.105Z,25.73
2018-11-03T05:36:53.343Z,31.50
2018-11-03T05:39:24.293Z,26.07
2018-11-03T05:41:55.216Z,26.73
2018-11-03T05:44:26.175Z,28.33
2018-11-03T05:46:57.106Z,24.57
2018-11-03T05:49:28.057Z,27.17
2018-11-03T05:51:59.124Z,25.30
2018-11-03T05:54:31.591Z,32.10
2018-11-03T05:57:02.917Z,25.00
2018-11-03T05:59:33.913Z,28.53
2018-11-03T06:02:04.918Z,32.07
2018-11-03T06:04:36.062Z,26.00
2018-11-03T06:07:07.987Z,27.10
2018-11-03T06:09:39.963Z,29.33
2018-11-03T06:12:10.922Z,32.53
2018-11-03T06:14:41.779Z,27.73
2018-11-03T06:17:12.655Z,28.50
2018-11-03T06:19:43.601Z,33.70
2018-11-03T06:22:14.481Z,55.90
2018-11-03T06:24:45.387Z,46.27
2018-11-03T06:27:16.241Z,38.00
2018-11-03T06:29:47.276Z,54.13
2018-11-03T06:32:18.196Z,50.53
2018-11-03T06:34:49.203Z,34.10
2018-11-03T06:37:20.087Z,38.63
2018-11-03T06:39:50.985Z,50.73
2018-11-03T06:42:21.899Z,58.10
2018-11-03T06:44:53.463Z,31.13
2018-11-03T06:47:24.345Z,35.23
2018-11-03T06:49:55.224Z,30.77
2018-11-03T06:52:26.330Z,29.90
2018-11-03T06:54:57.244Z,31.03
2018-11-03T06:57:29.034Z,28.03
2018-11-03T06:59:59.967Z,27.10
2018-11-03T07:02:30.771Z,27.00
2018-11-03T07:05:01.695Z,24.63
2018-11-03T07:07:32.502Z,30.07
2018-11-03T07:10:04.486Z,25.17
2018-11-03T07:12:35.981Z,28.50
2018-11-03T07:15:07.223Z,23.20
2018-11-03T07:17:38.479Z,27.60
2018-11-03T07:20:13.155Z,25.53
2018-11-03T07:22:44.677Z,26.73
2018-11-03T07:25:15.655Z,23.23
2018-11-03T07:27:46.532Z,25.30
2018-11-03T07:30:17.718Z,25.10
2018-11-03T07:32:48.609Z,23.73
2018-11-03T07:35:19.724Z,23.20
2018-11-03T07:37:50.572Z,25.03
2018-11-03T07:40:21.655Z,26.77
2018-11-03T07:42:52.643Z,25.47
2018-11-03T07:45:23.609Z,21.60
2018-11-03T07:47:54.467Z,23.67
2018-11-03T07:50:25.371Z,24.67
2018-11-03T07:52:56.237Z,26.63
2018-11-03T07:55:27.141Z,23.70
2018-11-03T07:57:58.142Z,24.90
2018-11-03T08:00:29.603Z,26.37
2018-11-03T08:03:00.548Z,20.37
2018-11-03T08:05:32.186Z,21.53
2018-11-03T08:08:03.233Z,21.93
2018-11-03T08:10:34.202Z,22.53
2018-11-03T08:13:05.522Z,21.07
2018-11-03T08:15:36.604Z,23.43
2018-11-03T08:18:07.872Z,19.20
2018-11-03T08:20:38.924Z,19.77
2018-11-03T08:23:09.832Z,22.67
2018-11-03T08:25:40.895Z,18.47
2018-11-03T08:28:11.814Z,20.40
2018-11-03T08:30:43.121Z,18.47
2018-11-03T08:33:14.071Z,21.10
2018-11-03T08:35:45.068Z,16.97
2018-11-03T08:38:15.947Z,15.83
2018-11-03T08:40:46.925Z,15.97
2018-11-03T08:43:17.793Z,27.77
2018-11-03T08:45:48.661Z,17.60
2018-11-03T08:48:19.629Z,13.53
2018-11-03T09:02:18.123Z,15.38
2018-11-03T09:05:04.147Z,14.68
2018-11-03T09:07:50.052Z,14.55
2018-11-03T09:10:35.827Z,14.33
2018-11-03T09:13:21.683Z,16.42
2018-11-03T09:16:07.443Z,19.05
2018-11-03T09:18:38.684Z,19.93
2018-11-03T09:21:10.309Z,13.38
2018-11-03T09:23:41.594Z,18.52
2018-11-03T09:26:12.908Z,18.25
2018-11-03T09:28:44.148Z,24.60
2018-11-03T09:31:29.871Z,20.08
2018-11-03T09:34:15.770Z,13.28
2018-11-03T09:37:01.541Z,16.00
2018-11-03T09:39:47.421Z,15.13
2018-11-03T09:42:33.101Z,16.00
2018-11-03T09:45:19.087Z,14.23
2018-11-03T09:47:50.153Z,16.48
2018-11-03T09:50:21.720Z,17.00
2018-11-03T09:52:53.405Z,14.10
2018-11-03T09:55:24.772Z,13.83
2018-11-03T09:57:56.290Z,14.70
2018-11-03T10:00:28.077Z,13.18
2018-11-03T10:02:59.457Z,14.28
2018-11-03T10:05:30.939Z,12.80
2018-11-03T10:08:02.856Z,15.35
2018-11-03T10:10:34.446Z,13.83
2018-11-03T10:13:06.060Z,13.15
2018-11-03T10:15:37.667Z,29.05
2018-11-03T10:18:09.096Z,23.85
2018-11-03T10:20:40.275Z,14.30
2018-11-03T10:23:11.986Z,14.50
2018-11-03T10:25:43.556Z,16.57
2018-11-03T10:28:14.935Z,13.70
2018-11-03T10:31:01.360Z,18.27
2018-11-03T10:33:47.322Z,14.95
2018-11-03T10:36:33.240Z,16.42
2018-11-03T10:39:19.025Z,18.35
2018-11-03T10:42:05.084Z,26.17
2018-11-03T10:44:50.965Z,32.40
2018-11-03T10:47:22.297Z,24.67
2018-11-03T10:49:53.581Z,22.77
2018-11-03T10:52:25.283Z,21.45
2018-11-03T10:54:56.497Z,37.75
2018-11-03T10:57:27.769Z,31.93
2018-11-03T10:59:59.065Z,36.15
2018-11-03T11:02:35.358Z,23.73
2018-11-03T11:05:11.840Z,30.57
2018-11-03T11:07:48.001Z,30.20
2018-11-03T11:10:26.190Z,26.33
2018-11-03T11:13:00.973Z,28.07
2018-11-03T11:15:32.341Z,24.05
2018-11-03T11:18:03.686Z,25.05
2018-11-03T11:20:35.250Z,24.52
2018-11-03T11:23:06.981Z,31.43
2018-11-03T11:25:37.922Z,25.40
2018-11-03T11:28:09.401Z,24.37
2018-11-03T11:30:55.521Z,24.30
2018-11-03T11:33:41.033Z,25.92
2018-11-03T11:36:26.731Z,28.05
2018-11-03T11:39:12.523Z,23.22
2018-11-03T11:41:57.977Z,29.48
2018-11-03T11:44:29.307Z,24.47
2018-11-03T11:47:00.810Z,29.13
2018-11-03T11:49:32.145Z,24.27
2018-11-03T11:52:03.634Z,26.47
2018-11-03T11:54:34.831Z,27.07
2018-11-03T11:57:06.528Z,30.00
2018-11-03T11:59:37.933Z,66.17
2018-11-03T12:02:09.031Z,118.87
2018-11-03T12:04:40.212Z,187.43
2018-11-03T12:07:11.756Z,40.67
2018-11-03T12:09:42.959Z,68.80
2018-11-03T12:12:14.139Z,53.13
2018-11-03T12:14:45.624Z,31.97
2018-11-03T12:17:16.995Z,31.83
2018-11-03T12:19:48.399Z,36.27
2018-11-03T12:22:19.533Z,32.10
2018-11-03T12:24:51.091Z,27.95
2018-11-03T12:27:36.913Z,28.27
2018-11-03T12:30:22.539Z,26.93
2018-11-03T12:33:08.293Z,29.32
2018-11-03T12:35:53.973Z,28.80
2018-11-03T12:38:39.779Z,27.30
2018-11-03T12:41:25.839Z,27.87
2018-11-03T12:44:11.788Z,29.97
2018-11-03T12:46:57.754Z,27.83
2018-11-03T12:49:43.361Z,31.27
2018-11-03T12:52:30.148Z,39.53
2018-11-03T12:55:15.863Z,27.77
2018-11-03T12:58:01.948Z,25.97
2018-11-03T13:00:33.564Z,26.43
2018-11-03T13:03:05.101Z,26.57
2018-11-03T13:05:36.612Z,33.33
2018-11-03T13:08:08.145Z,30.03
2018-11-03T13:10:39.588Z,30.77
2018-11-03T13:16:18.652Z,29.97
2018-11-03T13:18:49.859Z,29.87
2018-11-03T13:21:21.131Z,34.20
2018-11-03T13:23:52.256Z,34.03
2018-11-03T13:26:23.484Z,34.37
2018-11-03T13:28:54.733Z,30.43
2018-11-03T13:31:25.929Z,30.83
2018-11-03T13:33:57.364Z,31.47
2018-11-03T13:36:28.874Z,31.10
2018-11-03T13:39:00.252Z,36.57
2018-11-03T13:41:31.717Z,36.07
2018-11-03T13:44:03.151Z,32.77
2018-11-03T13:46:34.484Z,33.03
2018-11-03T13:49:05.764Z,32.27
2018-11-03T13:51:37.129Z,34.17
2018-11-03T13:54:10.122Z,32.10
2018-11-03T13:56:41.442Z,29.83
2018-11-03T13:59:12.873Z,30.90
2018-11-03T14:01:44.322Z,32.20
2018-11-03T14:04:15.656Z,34.57
2018-11-03T14:06:46.860Z,38.10
2018-11-03T14:09:18.394Z,34.33
2018-11-03T14:11:49.840Z,32.50
2018-11-03T14:14:21.315Z,44.43
2018-11-03T14:16:52.776Z,33.40
2018-11-03T14:19:24.112Z,33.30
2018-11-03T14:21:55.749Z,31.97
2018-11-03T14:24:26.924Z,37.97
2018-11-03T14:26:58.466Z,37.20
2018-11-03T14:29:29.794Z,37.57
2018-11-03T14:32:01.435Z,31.50
2018-11-03T14:34:32.734Z,29.00
2018-11-03T14:37:04.136Z,31.53
2018-11-03T14:39:35.719Z,32.50
2018-11-03T14:42:07.313Z,32.33
2018-11-03T14:44:38.494Z,37.10
2018-11-03T14:47:09.860Z,33.47
2018-11-03T14:49:41.273Z,33.90
2018-11-03T14:52:12.762Z,30.50
2018-11-03T14:54:47.088Z,28.90
2018-11-03T14:57:18.898Z,29.80
2018-11-03T14:59:50.510Z,31.47
2018-11-03T15:02:21.734Z,33.80
2018-11-03T15:04:53.240Z,35.43
2018-11-03T15:07:24.617Z,30.53
2018-11-03T15:09:56.605Z,35.53
2018-11-03T15:12:28.109Z,34.37
2018-11-03T15:14:59.743Z,29.40
2018-11-03T15:17:31.294Z,31.20
2018-11-03T15:20:02.718Z,32.87
2018-11-03T15:22:34.071Z,32.53
2018-11-03T15:25:05.597Z,28.50
2018-11-03T15:27:37.135Z,29.53
2018-11-03T15:30:10.665Z,34.07
2018-11-03T15:32:42.436Z,27.63
2018-11-03T15:35:14.057Z,31.63
2018-11-03T15:37:45.200Z,30.33
2018-11-03T15:40:17.049Z,27.87
2018-11-03T15:42:48.403Z,29.10
2018-11-03T15:45:19.759Z,28.07
2018-11-03T15:47:51.213Z,31.90
2018-11-03T15:50:22.736Z,34.00
2018-11-03T15:52:54.105Z,29.43
2018-11-03T15:55:25.246Z,29.07
2018-11-03T15:57:56.892Z,31.93
2018-11-03T16:00:28.240Z,29.33
2018-11-03T16:02:59.537Z,29.73
2018-11-03T16:05:30.932Z,25.70
2018-11-03T16:08:02.405Z,27.73
2018-11-03T16:10:33.855Z,30.63
2018-11-03T16:13:05.237Z,34.70
2018-11-03T16:15:36.731Z,30.23
2018-11-03T16:18:08.522Z,30.60
2018-11-03T16:20:40.373Z,30.83
2018-11-03T16:23:11.764Z,29.13
2018-11-03T16:25:42.981Z,32.73
2018-11-03T16:28:14.480Z,32.93
2018-11-03T16:30:46.521Z,32.50
2018-11-03T16:33:17.841Z,33.27
2018-11-03T16:35:49.294Z,32.90
2018-11-03T16:38:20.638Z,34.40
2018-11-03T16:40:51.956Z,37.17
2018-11-03T16:43:23.292Z,34.73
2018-11-03T16:45:54.735Z,33.40
2018-11-03T16:48:26.530Z,34.77
2018-11-03T16:50:58.126Z,38.40
2018-11-03T16:53:29.789Z,38.07
2018-11-03T16:56:01.274Z,39.33
2018-11-03T16:58:33.031Z,36.57
2018-11-03T17:01:04.452Z,38.93
2018-11-03T17:03:36.033Z,38.03
2018-11-03T17:06:07.232Z,36.10
2018-11-03T17:08:39.172Z,35.93
2018-11-03T17:11:11.035Z,36.43
2018-11-03T17:13:42.639Z,35.30
2018-11-03T17:16:14.577Z,37.17
2018-11-03T17:18:46.434Z,38.83
2018-11-03T17:21:18.268Z,32.80
2018-11-03T17:23:50.047Z,38.33
2018-11-03T17:26:21.460Z,37.20
2018-11-03T17:28:52.998Z,31.83
2018-11-03T17:31:24.270Z,32.17
2018-11-03T17:33:55.888Z,53.73
2018-11-03T17:36:27.645Z,40.50
2018-11-03T17:38:59.430Z,39.13
2018-11-03T17:41:30.745Z,40.77
2018-11-03T17:44:02.631Z,44.90
2018-11-03T17:46:34.119Z,38.23
2018-11-03T17:49:05.666Z,39.77
2018-11-03T17:51:37.443Z,42.23
2018-11-03T17:54:08.882Z,42.47
2018-11-03T17:56:40.806Z,41.13
2018-11-03T17:59:12.476Z,34.73
2018-11-03T18:01:44.324Z,38.73
2018-11-03T18:04:15.805Z,37.93
2018-11-03T18:06:47.613Z,39.07
2018-11-03T18:09:19.144Z,33.77
2018-11-03T18:11:50.743Z,38.20
2018-11-03T18:14:22.210Z,38.03
2018-11-03T18:16:54.283Z,40.90
2018-11-03T18:19:25.598Z,38.00
2018-11-03T18:21:57.309Z,36.00
2018-11-03T18:24:28.958Z,45.80
2018-11-03T18:27:00.909Z,43.23
2018-11-03T18:29:32.518Z,45.10
2018-11-03T18:32:04.189Z,51.80
2018-11-03T18:34:35.582Z,73.37
2018-11-03T18:37:07.313Z,59.40
2018-11-03T18:39:38.914Z,45.03
2018-11-03T18:42:10.251Z,40.47
2018-11-03T18:44:41.771Z,40.13
2018-11-03T18:47:13.336Z,43.23
2018-11-03T18:49:44.866Z,41.33
2018-11-03T18:52:16.572Z,39.23
2018-11-03T18:54:49.121Z,41.97
2018-11-03T18:57:20.641Z,43.63
2018-11-03T18:59:52.213Z,36.93
2018-11-03T19:02:23.992Z,39.73
2018-11-03T19:04:55.581Z,38.53
2018-11-03T19:07:27.363Z,34.37
2018-11-03T19:09:58.795Z,40.10
2018-11-03T19:12:30.515Z,36.57
2018-11-03T19:15:02.079Z,33.30
2018-11-03T19:17:33.581Z,33.77
2018-11-03T19:20:05.470Z,34.10
2018-11-03T19:22:37.202Z,29.37
2018-11-03T19:25:10.797Z,35.67
2018-11-03T19:27:42.380Z,40.00
2018-11-03T19:30:14.543Z,36.70
2018-11-03T19:32:46.168Z,37.97
2018-11-03T19:35:17.867Z,40.70
2018-11-03T19:37:56.086Z,43.47
2018-11-03T19:40:27.651Z,47.30
2018-11-03T19:42:59.189Z,43.87
2018-11-03T19:45:30.906Z,43.90
2018-11-03T19:48:02.740Z,41.07
2018-11-03T19:50:34.130Z,51.83
2018-11-03T19:53:05.438Z,37.77
2018-11-03T19:55:36.956Z,32.07
2018-11-03T19:58:08.480Z,31.97
2018-11-03T20:00:40.285Z,34.87
2018-11-03T20:03:11.744Z,39.53
2018-11-03T20:05:42.919Z,44.33
2018-11-03T20:08:14.387Z,54.90
2018-11-03T20:10:46.120Z,58.30
2018-11-03T20:13:17.565Z,36.03
2018-11-03T20:15:49.101Z,35.43
2018-11-03T20:18:20.839Z,35.33
2018-11-03T20:20:52.399Z,60.47
2018-11-03T20:23:24.218Z,43.93
2018-11-03T20:25:57.937Z,53.20
2018-11-03T20:28:29.575Z,50.13
2018-11-03T20:31:01.514Z,32.13
2018-11-03T20:33:40.839Z,37.93
2018-11-03T20:36:13.396Z,44.13
2018-11-03T20:38:45.597Z,57.70
2018-11-03T20:41:17.559Z,34.47
2018-11-03T20:43:49.411Z,33.10
2018-11-03T20:46:21.485Z,32.70
2018-11-03T20:48:53.404Z,37.53
2018-11-03T20:51:25.268Z,37.73
2018-11-03T20:53:56.613Z,33.53
2018-11-03T20:56:28.341Z,33.37
2018-11-03T20:58:59.839Z,62.20
2018-11-03T21:01:31.183Z,35.70
2018-11-03T21:04:02.854Z,37.70
2018-11-03T21:06:34.213Z,40.63
2018-11-03T21:09:06.702Z,33.93
2018-11-03T21:11:38.185Z,28.20
2018-11-03T21:14:12.514Z,39.17
2018-11-03T21:16:44.051Z,54.20
2018-11-03T21:19:15.389Z,51.07
2018-11-03T21:21:46.826Z,35.20
2018-11-03T21:24:18.354Z,27.73
2018-11-03T21:26:49.865Z,68.10
2018-11-03T21:29:21.647Z,73.37
2018-11-03T21:31:53.248Z,37.73
2018-11-03T21:34:25.191Z,78.97
2018-11-03T21:36:58.037Z,60.53
2018-11-03T21:39:29.642Z,31.23
2018-11-03T21:42:01.347Z,30.37
2018-11-03T21:44:32.625Z,34.57
2018-11-03T21:47:04.523Z,36.87
2018-11-03T21:49:36.168Z,39.97
2018-11-03T21:52:07.823Z,52.00
2018-11-03T21:54:39.345Z,38.60
2018-11-03T21:57:10.806Z,34.97
2018-11-03T21:59:42.247Z,32.83
2018-11-03T22:02:14.753Z,33.87
2018-11-03T22:04:45.981Z,33.47
2018-11-03T22:07:17.355Z,31.13
2018-11-03T22:09:49.373Z,33.47
2018-11-03T22:12:20.931Z,32.13
2018-11-03T22:14:54.187Z,29.90
2018-11-03T22:17:25.710Z,30.67
2018-11-03T22:19:56.882Z,29.17
2018-11-03T22:22:28.565Z,32.87
2018-11-03T22:24:59.890Z,84.53
2018-11-03T22:27:31.699Z,95.63
2018-11-03T22:30:03.035Z,32.57
2018-11-03T22:32:34.311Z,28.63
2018-11-03T22:35:06.062Z,29.83
2018-11-03T22:37:37.729Z,28.83
2018-11-03T22:40:09.778Z,28.27
2018-11-03T22:42:41.121Z,31.13
2018-11-03T22:45:12.169Z,29.07
2018-11-03T22:47:43.611Z,26.83
2018-11-03T22:50:15.082Z,31.33
2018-11-03T22:52:46.636Z,29.60
2018-11-03T22:55:17.935Z,28.70
2018-11-03T22:57:49.368Z,28.20
2018-11-03T23:00:20.913Z,30.30
2018-11-03T23:02:52.536Z,30.10
2018-11-03T23:05:23.818Z,30.13
2018-11-03T23:07:55.276Z,32.90
2018-11-03T23:10:26.451Z,31.93
2018-11-03T23:12:57.676Z,29.17
2018-11-03T23:15:29.089Z,33.43
2018-11-03T23:18:00.672Z,51.37
2018-11-03T23:20:32.136Z,31.53
2018-11-03T23:23:03.603Z,29.80
2018-11-03T23:25:34.970Z,30.37
2018-11-03T23:28:06.589Z,30.70
2018-11-03T23:30:38.147Z,51.70
2018-11-03T23:33:09.425Z,86.90
2018-11-03T23:35:40.753Z,36.67
2018-11-03T23:38:12.132Z,33.90
2018-11-03T23:40:43.421Z,29.90
2018-11-03T23:43:14.732Z,28.60
2018-11-03T23:45:46.519Z,33.10
2018-11-03T23:48:18.127Z,30.30
2018-11-03T23:50:49.370Z,30.50
2018-11-03T23:53:20.755Z,27.57
2018-11-03T23:55:52.045Z,24.57
2018-11-03T23:58:23.463Z,27.50
